createdAt,value
2017-07-02T00:00:57.402Z,81.60
2017-07-02T00:03:24.353Z,81.20
2017-07-02T00:05:51.311Z,81.50
2017-07-02T00:08:18.641Z,81.60
2017-07-02T00:10:45.533Z,81.60
2017-07-02T00:13:12.446Z,81.90
2017-07-02T00:15:39.510Z,82.10
2017-07-02T00:18:06.853Z,81.80
2017-07-02T00:20:33.805Z,81.80
2017-07-02T00:23:01.149Z,82.00
2017-07-02T00:25:28.118Z,82.00
2017-07-02T00:27:55.465Z,82.00
2017-07-02T00:30:22.841Z,82.00
2017-07-02T00:32:49.726Z,82.00
2017-07-02T00:35:16.726Z,82.40
2017-07-02T00:37:44.060Z,81.80
2017-07-02T00:40:10.942Z,81.80
2017-07-02T00:42:37.866Z,82.10
2017-07-02T00:45:05.221Z,82.40
2017-07-02T00:47:32.113Z,82.40
2017-07-02T00:49:59.038Z,82.30
2017-07-02T00:52:25.965Z,82.10
2017-07-02T00:54:53.247Z,82.20
2017-07-02T00:57:20.182Z,82.20
2017-07-02T00:59:47.201Z,81.60
2017-07-02T01:02:14.094Z,82.10
2017-07-02T01:04:41.020Z,82.20
2017-07-02T01:07:08.006Z,82.30
2017-07-02T01:09:34.895Z,82.20
2017-07-02T01:12:02.246Z,81.50
2017-07-02T01:14:29.601Z,81.30
2017-07-02T01:16:56.890Z,81.50
2017-07-02T01:19:23.802Z,81.50
2017-07-02T01:21:50.820Z,82.10
2017-07-02T01:24:18.166Z,82.40
2017-07-02T01:26:45.116Z,82.40
2017-07-02T01:29:12.586Z,82.50
2017-07-02T01:31:39.878Z,82.30
2017-07-02T01:34:06.762Z,82.30
2017-07-02T01:36:33.729Z,82.70
2017-07-02T01:39:00.622Z,82.90
2017-07-02T01:41:27.507Z,83.00
2017-07-02T01:43:54.450Z,82.60
2017-07-02T01:46:21.351Z,82.30
2017-07-02T01:48:48.256Z,82.00
2017-07-02T01:51:15.184Z,81.70
2017-07-02T01:53:42.090Z,81.80
2017-07-02T01:56:08.975Z,81.40
2017-07-02T01:58:35.906Z,81.20
2017-07-02T02:01:14.806Z,81.00
2017-07-02T02:03:41.743Z,80.70
2017-07-02T02:06:08.710Z,80.60
2017-07-02T02:08:35.997Z,81.60
2017-07-02T02:11:02.949Z,81.60
2017-07-02T02:13:29.838Z,81.80
2017-07-02T02:15:56.741Z,82.00
2017-07-02T02:18:23.705Z,82.00
2017-07-02T02:20:50.685Z,82.00
2017-07-02T02:23:17.743Z,82.20
2017-07-02T02:25:45.106Z,82.00
2017-07-02T02:28:12.465Z,81.20
2017-07-02T02:30:39.817Z,81.30
2017-07-02T02:33:07.221Z,81.50
2017-07-02T02:35:34.212Z,81.50
2017-07-02T02:38:01.154Z,81.20
2017-07-02T02:40:28.175Z,81.00
2017-07-02T02:42:55.466Z,81.30
2017-07-02T02:45:22.354Z,81.30
2017-07-02T02:47:49.329Z,81.20
2017-07-02T02:50:16.610Z,81.10
2017-07-02T02:52:43.513Z,81.10
2017-07-02T02:55:10.606Z,81.40
2017-07-02T02:57:37.493Z,81.30
2017-07-02T03:00:04.842Z,81.40
2017-07-02T03:02:31.797Z,81.40
2017-07-02T03:04:59.108Z,81.60
2017-07-02T03:07:26.123Z,81.60
2017-07-02T03:09:53.103Z,81.90
2017-07-02T03:12:19.987Z,81.00
2017-07-02T03:14:46.873Z,80.80
2017-07-02T03:17:13.810Z,80.80
2017-07-02T03:19:40.698Z,79.60
2017-07-02T03:22:07.671Z,79.40
2017-07-02T03:24:35.031Z,79.20
2017-07-02T03:27:02.382Z,79.30
2017-07-02T03:29:29.741Z,78.70
2017-07-02T03:31:57.081Z,78.60
2017-07-02T03:34:24.049Z,78.60
2017-07-02T03:36:51.347Z,78.70
2017-07-02T03:39:18.346Z,78.70
2017-07-02T03:41:45.241Z,78.80
2017-07-02T03:44:12.240Z,78.60
2017-07-02T03:46:39.562Z,78.50
2017-07-02T03:49:06.453Z,78.50
2017-07-02T03:51:33.743Z,78.50
2017-07-02T03:54:00.741Z,78.50
2017-07-02T03:56:28.096Z,79.20
2017-07-02T03:58:54.982Z,79.20
2017-07-02T04:01:21.987Z,79.20
2017-07-02T04:03:48.880Z,79.00
2017-07-02T04:06:15.877Z,78.50
2017-07-02T04:08:43.221Z,78.70
2017-07-02T04:11:10.182Z,78.70
2017-07-02T04:13:37.130Z,79.00
2017-07-02T04:16:04.484Z,79.00
2017-07-02T04:18:31.838Z,79.20
2017-07-02T04:20:58.724Z,79.20
2017-07-02T04:23:25.730Z,79.50
2017-07-02T04:25:52.618Z,78.80
2017-07-02T04:28:19.506Z,78.80
2017-07-02T04:30:46.476Z,78.70
2017-07-02T04:33:13.793Z,78.30
2017-07-02T04:35:40.774Z,78.30
2017-07-02T04:38:08.153Z,78.10
2017-07-02T04:40:35.069Z,78.10
2017-07-02T04:43:02.025Z,78.40
2017-07-02T04:45:29.350Z,78.30
2017-07-02T04:47:56.241Z,78.30
2017-07-02T04:50:23.164Z,77.90
2017-07-02T04:52:50.114Z,77.50
2017-07-02T04:55:17.410Z,76.20
2017-07-02T04:57:44.333Z,76.20
2017-07-02T05:00:11.358Z,76.40
2017-07-02T05:02:38.316Z,77.20
2017-07-02T05:05:05.601Z,78.40
2017-07-02T05:07:33.481Z,78.40
2017-07-02T05:10:00.484Z,78.10
2017-07-02T05:12:28.222Z,78.60
2017-07-02T05:14:55.190Z,78.70
2017-07-02T05:17:22.091Z,78.10
2017-07-02T05:19:48.989Z,77.90
2017-07-02T05:22:16.317Z,78.40
2017-07-02T05:24:43.205Z,78.40
2017-07-02T05:27:10.125Z,78.80
2017-07-02T05:29:37.461Z,78.40
2017-07-02T05:32:04.445Z,78.40
2017-07-02T05:34:31.731Z,78.20
2017-07-02T05:36:58.662Z,78.20
2017-07-02T05:39:25.555Z,78.70
2017-07-02T05:41:52.442Z,78.00
2017-07-02T05:44:19.467Z,78.50
2017-07-02T05:46:46.417Z,77.60
2017-07-02T05:49:13.769Z,77.40
2017-07-02T05:51:40.721Z,77.40
2017-07-02T05:54:08.010Z,77.20
2017-07-02T05:56:39.429Z,77.20
2017-07-02T05:59:06.317Z,76.30
2017-07-02T06:01:33.211Z,76.60
2017-07-02T06:04:00.554Z,76.50
2017-07-02T06:06:27.912Z,76.80
2017-07-02T06:08:55.266Z,76.80
2017-07-02T06:11:22.601Z,76.50
2017-07-02T06:13:49.570Z,76.50
2017-07-02T06:16:16.921Z,76.50
2017-07-02T06:18:43.877Z,76.50
2017-07-02T06:21:11.234Z,77.00
2017-07-02T06:23:38.595Z,76.60
2017-07-02T06:26:05.926Z,76.30
2017-07-02T06:28:32.886Z,76.30
2017-07-02T06:30:59.795Z,76.00
2017-07-02T06:33:26.774Z,75.60
2017-07-02T06:35:53.725Z,74.90
2017-07-02T06:38:21.009Z,74.20
2017-07-02T06:40:47.938Z,74.20
2017-07-02T06:43:15.232Z,73.80
2017-07-02T06:45:42.273Z,73.80
2017-07-02T06:48:09.274Z,74.80
2017-07-02T06:50:36.158Z,75.30
2017-07-02T06:53:03.044Z,75.10
2017-07-02T06:55:30.013Z,74.30
2017-07-02T06:57:57.370Z,73.80
2017-07-02T07:00:24.658Z,72.60
2017-07-02T07:02:51.586Z,72.60
2017-07-02T07:05:18.921Z,70.90
2017-07-02T07:07:45.810Z,70.90
2017-07-02T07:10:12.746Z,70.60
2017-07-02T07:12:39.630Z,71.00
2017-07-02T07:15:06.622Z,71.10
2017-07-02T07:17:34.061Z,73.20
2017-07-02T07:20:00.956Z,73.20
2017-07-02T07:22:27.852Z,73.40
2017-07-02T07:24:55.176Z,70.90
2017-07-02T07:27:22.159Z,70.90
2017-07-02T07:29:49.458Z,72.20
2017-07-02T07:32:16.626Z,72.20
2017-07-02T07:34:43.793Z,72.30
2017-07-02T07:37:11.213Z,72.40
2017-07-02T07:39:38.244Z,72.40
2017-07-02T07:42:05.276Z,72.70
2017-07-02T07:44:32.613Z,72.30
2017-07-02T07:46:59.574Z,72.30
2017-07-02T07:49:26.870Z,71.90
2017-07-02T07:51:53.774Z,71.90
2017-07-02T07:54:21.129Z,72.10
2017-07-02T07:56:48.481Z,71.70
2017-07-02T07:59:15.841Z,72.10
2017-07-02T08:01:43.200Z,70.10
2017-07-02T08:04:10.484Z,69.40
2017-07-02T08:06:37.361Z,69.40
2017-07-02T08:09:04.338Z,67.00
2017-07-02T08:11:31.303Z,66.40
2017-07-02T08:13:58.248Z,67.50
2017-07-02T08:16:25.590Z,67.00
2017-07-02T08:18:52.897Z,67.70
2017-07-02T08:21:19.829Z,67.70
2017-07-02T08:23:46.756Z,68.30
2017-07-02T08:26:13.646Z,68.50
2017-07-02T08:28:40.628Z,68.10
2017-07-02T08:31:07.569Z,67.20
2017-07-02T08:33:34.542Z,65.30
2017-07-02T08:36:01.462Z,65.70
2017-07-02T08:38:28.431Z,65.10
2017-07-02T08:40:55.333Z,65.70
2017-07-02T08:43:22.258Z,65.80
2017-07-02T08:45:49.222Z,67.00
2017-07-02T08:48:16.178Z,66.90
2017-07-02T08:50:43.522Z,65.20
2017-07-02T08:53:10.467Z,65.30
2017-07-02T08:55:37.345Z,65.40
2017-07-02T08:58:04.262Z,65.10
2017-07-02T09:00:31.194Z,64.80
2017-07-02T09:02:58.161Z,64.60
2017-07-02T09:05:25.118Z,64.70
2017-07-02T09:07:52.466Z,63.40
2017-07-02T09:10:19.817Z,63.70
2017-07-02T09:12:47.093Z,64.30
2017-07-02T09:15:14.117Z,64.30
2017-07-02T09:17:41.474Z,64.40
2017-07-02T09:20:08.870Z,64.00
2017-07-02T09:22:35.873Z,64.00
2017-07-02T09:25:02.766Z,63.70
2017-07-02T09:27:29.765Z,63.70
2017-07-02T09:29:56.690Z,64.70
2017-07-02T09:32:23.645Z,65.70
2017-07-02T09:34:50.994Z,66.20
2017-07-02T09:37:17.927Z,66.20
2017-07-02T09:39:44.889Z,66.10
2017-07-02T09:42:11.832Z,65.80
2017-07-02T09:44:38.785Z,64.40
2017-07-02T09:47:05.662Z,66.20
2017-07-02T09:49:32.545Z,66.80
2017-07-02T09:51:59.514Z,67.10
2017-07-02T09:54:26.403Z,67.30
2017-07-02T09:56:53.313Z,68.20
2017-07-02T09:59:20.639Z,69.30
2017-07-02T10:01:47.522Z,69.30
2017-07-02T10:04:14.805Z,69.20
2017-07-02T10:06:41.738Z,69.20
2017-07-02T10:09:08.622Z,69.20
2017-07-02T10:11:35.603Z,69.60
2017-07-02T10:14:02.528Z,69.70
2017-07-02T10:16:29.541Z,69.70
2017-07-02T10:18:56.426Z,69.80
2017-07-02T10:21:23.369Z,69.70
2017-07-02T10:23:50.338Z,70.00
2017-07-02T10:26:17.631Z,69.70
2017-07-02T10:28:44.630Z,69.70
2017-07-02T10:31:11.590Z,69.30
2017-07-02T10:33:38.961Z,69.50
2017-07-02T10:36:06.000Z,69.60
2017-07-02T10:38:33.351Z,69.20
2017-07-02T10:41:00.634Z,68.70
2017-07-02T10:43:27.571Z,68.70
2017-07-02T10:45:54.493Z,68.50
2017-07-02T10:48:21.846Z,66.90
2017-07-02T10:50:48.766Z,66.90
2017-07-02T10:53:15.674Z,66.00
2017-07-02T10:55:42.565Z,67.60
2017-07-02T10:58:09.517Z,67.30
2017-07-02T11:00:36.414Z,67.30
2017-07-02T11:03:03.309Z,67.80
2017-07-02T11:05:30.666Z,67.00
2017-07-02T11:07:57.611Z,67.00
2017-07-02T11:10:24.494Z,65.40
2017-07-02T11:12:51.490Z,64.20
2017-07-02T11:15:18.466Z,63.10
2017-07-02T11:17:45.806Z,62.60
2017-07-02T11:20:12.750Z,62.60
2017-07-02T11:22:39.641Z,62.40
2017-07-02T11:25:06.517Z,62.00
2017-07-02T11:27:33.462Z,62.30
2017-07-02T11:30:00.349Z,62.40
2017-07-02T11:32:27.642Z,63.20
2017-07-02T11:34:54.641Z,63.20
2017-07-02T11:37:21.522Z,62.00
2017-07-02T11:39:48.397Z,61.90
2017-07-02T11:42:15.326Z,61.90
2017-07-02T11:44:42.326Z,61.90
2017-07-02T11:47:09.635Z,61.30
2017-07-02T11:49:36.625Z,61.30
2017-07-02T11:52:03.568Z,61.30
2017-07-02T11:54:30.517Z,61.70
2017-07-02T11:56:57.845Z,61.90
2017-07-02T11:59:24.820Z,61.90
2017-07-02T12:01:51.757Z,61.70
2017-07-02T12:04:18.809Z,62.10
2017-07-02T12:06:45.694Z,62.10
2017-07-02T12:09:12.577Z,62.10
2017-07-02T12:11:39.558Z,62.30
2017-07-02T12:14:06.834Z,62.30
2017-07-02T12:16:33.717Z,62.30
2017-07-02T12:19:00.689Z,61.90
2017-07-02T12:21:27.574Z,61.40
2017-07-02T12:23:54.629Z,60.60
2017-07-02T12:26:21.557Z,60.70
2017-07-02T12:28:48.446Z,61.10
2017-07-02T12:31:15.335Z,60.70
2017-07-02T12:33:42.265Z,60.70
2017-07-02T12:36:09.141Z,60.80
2017-07-02T12:38:36.031Z,59.90
2017-07-02T12:41:02.957Z,60.80
2017-07-02T12:43:29.841Z,60.20
2017-07-02T12:45:56.723Z,60.50
2017-07-02T12:48:23.646Z,60.00
2017-07-02T12:50:50.948Z,60.40
2017-07-02T12:53:17.830Z,60.40
2017-07-02T12:55:44.786Z,60.70
2017-07-02T12:58:11.666Z,60.10
2017-07-02T13:00:38.547Z,60.90
2017-07-02T13:03:05.909Z,62.70
2017-07-02T13:05:33.263Z,63.30
2017-07-02T13:08:00.614Z,63.60
2017-07-02T13:10:27.942Z,63.80
2017-07-02T13:12:54.826Z,63.80
2017-07-02T13:15:21.766Z,64.20
2017-07-02T13:17:49.092Z,64.50
2017-07-02T13:20:16.066Z,64.50
2017-07-02T13:22:43.418Z,64.50
2017-07-02T13:25:10.738Z,64.80
2017-07-02T13:27:37.630Z,64.80
2017-07-02T13:30:04.914Z,64.70
2017-07-02T13:32:31.914Z,64.70
2017-07-02T13:34:58.817Z,64.70
2017-07-02T13:37:25.693Z,65.10
2017-07-02T13:39:52.654Z,65.60
2017-07-02T13:42:19.557Z,66.00
2017-07-02T13:44:46.614Z,65.80
2017-07-02T13:47:13.604Z,66.00
2017-07-02T13:49:40.960Z,66.00
2017-07-02T13:52:08.253Z,66.00
2017-07-02T13:54:35.257Z,66.10
2017-07-02T13:57:02.148Z,66.60
2017-07-02T13:59:29.049Z,67.00
2017-07-02T14:01:56.362Z,68.60
2017-07-02T14:04:23.257Z,68.60
2017-07-02T14:06:50.539Z,71.00
2017-07-02T14:09:17.545Z,71.00
2017-07-02T14:11:44.425Z,71.50
2017-07-02T14:14:11.350Z,71.80
2017-07-02T14:16:38.678Z,72.20
2017-07-02T14:19:05.560Z,72.20
2017-07-02T14:21:32.449Z,72.20
2017-07-02T14:23:59.435Z,72.60
2017-07-02T14:26:26.717Z,72.50
2017-07-02T14:28:53.629Z,72.50
2017-07-02T14:31:20.579Z,71.90
2017-07-02T14:33:47.554Z,71.80
2017-07-02T14:36:14.442Z,71.50
2017-07-02T14:38:41.365Z,71.70
2017-07-02T14:41:08.259Z,72.20
2017-07-02T14:43:35.546Z,72.00
2017-07-02T14:46:02.482Z,72.00
2017-07-02T14:48:29.369Z,71.50
2017-07-02T14:50:56.249Z,71.00
2017-07-02T14:53:23.206Z,70.00
2017-07-02T14:55:50.486Z,69.80
2017-07-02T14:58:17.436Z,69.90
2017-07-02T15:00:44.441Z,69.80
2017-07-02T15:03:11.393Z,69.70
2017-07-02T15:05:38.749Z,69.90
2017-07-02T15:08:05.694Z,69.90
2017-07-02T15:10:33.051Z,70.50
2017-07-02T15:12:59.952Z,70.50
2017-07-02T15:15:26.874Z,70.60
2017-07-02T15:17:53.757Z,71.10
2017-07-02T15:20:20.641Z,71.40
2017-07-02T15:22:47.957Z,72.00
2017-07-02T15:25:14.934Z,72.00
2017-07-02T15:27:42.298Z,72.20
2017-07-02T15:30:09.654Z,72.50
2017-07-02T15:32:36.939Z,72.30
2017-07-02T15:35:03.866Z,72.30
2017-07-02T15:37:30.793Z,72.60
2017-07-02T15:39:58.073Z,72.70
2017-07-02T15:42:24.957Z,72.70
2017-07-02T15:44:51.935Z,72.60
2017-07-02T15:47:18.797Z,72.50
2017-07-02T15:49:45.679Z,72.20
2017-07-02T15:52:12.607Z,72.00
2017-07-02T15:54:39.485Z,72.20
2017-07-02T15:57:06.458Z,72.30
2017-07-02T15:59:33.406Z,72.40
2017-07-02T16:02:00.762Z,72.20
2017-07-02T16:04:28.118Z,72.20
2017-07-02T16:06:55.469Z,71.90
2017-07-02T16:09:22.353Z,71.90
2017-07-02T16:11:49.265Z,72.20
2017-07-02T16:14:16.213Z,71.80
2017-07-02T16:16:43.493Z,71.60
2017-07-02T16:19:10.431Z,71.60
2017-07-02T16:21:37.353Z,71.50
2017-07-02T16:24:04.301Z,71.50
2017-07-02T16:26:31.232Z,71.60
2017-07-02T16:28:58.193Z,71.60
2017-07-02T16:31:25.555Z,71.80
2017-07-02T16:33:52.907Z,72.30
2017-07-02T16:36:19.895Z,72.30
2017-07-02T16:38:46.782Z,72.20
2017-07-02T16:41:13.788Z,71.90
2017-07-02T16:43:40.725Z,71.70
2017-07-02T16:46:07.617Z,71.90
2017-07-02T16:48:34.501Z,71.80
2017-07-02T16:51:01.426Z,71.70
2017-07-02T16:53:28.313Z,71.70
2017-07-02T16:55:55.211Z,71.90
2017-07-02T16:58:22.175Z,72.10
2017-07-02T17:00:49.074Z,72.00
2017-07-02T17:03:16.038Z,71.50
2017-07-02T17:05:43.069Z,70.90
2017-07-02T17:08:09.959Z,70.10
2017-07-02T17:10:36.861Z,69.80
2017-07-02T17:13:03.793Z,69.80
2017-07-02T17:15:30.681Z,69.70
2017-07-02T17:17:57.605Z,69.50
2017-07-02T17:20:24.945Z,68.70
2017-07-02T17:22:51.844Z,68.70
2017-07-02T17:25:18.728Z,68.20
2017-07-02T17:27:45.691Z,68.40
2017-07-02T17:30:13.065Z,71.30
2017-07-02T17:32:39.989Z,71.30
2017-07-02T17:35:07.327Z,71.50
2017-07-02T17:37:34.536Z,71.50
2017-07-02T17:40:01.423Z,71.80
2017-07-02T17:42:28.355Z,71.50
2017-07-02T17:44:55.352Z,71.20
2017-07-02T17:47:22.258Z,71.20
2017-07-02T17:49:49.266Z,71.40
2017-07-02T17:52:16.216Z,71.30
2017-07-02T17:54:43.264Z,71.40
2017-07-02T17:57:10.323Z,72.10
2017-07-02T17:59:37.298Z,72.00
2017-07-02T18:02:04.265Z,71.80
2017-07-02T18:04:31.669Z,71.90
2017-07-02T18:06:58.593Z,71.90
2017-07-02T18:09:25.510Z,72.20
2017-07-02T18:11:52.560Z,72.60
2017-07-02T18:14:20.781Z,73.00
2017-07-02T18:16:47.931Z,73.00
2017-07-02T18:19:14.937Z,73.00
2017-07-02T18:21:42.258Z,72.40
2017-07-02T18:24:09.317Z,72.40
2017-07-02T18:26:36.247Z,72.40
2017-07-02T18:29:03.241Z,72.40
2017-07-02T18:31:30.174Z,71.90
2017-07-02T18:33:57.257Z,72.20
2017-07-02T18:36:24.158Z,72.40
2017-07-02T18:38:52.254Z,72.20
2017-07-02T18:41:19.186Z,72.40
2017-07-02T18:43:46.184Z,72.60
2017-07-02T18:46:13.067Z,72.80
2017-07-02T18:48:40.038Z,72.70
2017-07-02T18:51:06.984Z,72.70
2017-07-02T18:53:33.938Z,72.10
2017-07-02T18:56:01.299Z,72.00
2017-07-02T18:58:28.591Z,72.70
2017-07-02T19:00:55.482Z,72.70
2017-07-02T19:03:22.421Z,73.10
2017-07-02T19:05:49.342Z,73.40
2017-07-02T19:08:16.278Z,73.50
2017-07-02T19:10:43.270Z,73.50
2017-07-02T19:13:10.574Z,74.10
2017-07-02T19:15:37.462Z,74.10
2017-07-02T19:18:04.534Z,74.10
2017-07-02T19:20:31.834Z,74.60
2017-07-02T19:22:58.821Z,74.60
2017-07-02T19:25:26.160Z,74.90
2017-07-02T19:27:53.061Z,74.90
2017-07-02T19:30:19.970Z,75.10
2017-07-02T19:32:47.296Z,75.80
2017-07-02T19:35:14.185Z,75.80
2017-07-02T19:37:41.467Z,75.80
2017-07-02T19:40:08.401Z,75.80
2017-07-02T19:42:35.316Z,75.80
2017-07-02T19:45:02.674Z,75.90
2017-07-02T19:47:29.997Z,76.00
2017-07-02T19:49:56.890Z,76.00
2017-07-02T19:52:24.235Z,75.70
2017-07-02T19:54:51.159Z,75.70
2017-07-02T19:57:18.160Z,75.60
2017-07-02T19:59:45.065Z,75.60
2017-07-02T20:02:12.402Z,75.80
2017-07-02T20:04:39.365Z,75.80
2017-07-02T20:07:06.660Z,76.40
2017-07-02T20:09:33.598Z,76.40
2017-07-02T20:12:00.544Z,76.60
2017-07-02T20:14:27.433Z,76.90
2017-07-02T20:16:54.386Z,77.10
2017-07-02T20:19:21.274Z,77.40
2017-07-02T20:21:48.218Z,77.80
2017-07-02T20:24:15.158Z,78.00
2017-07-02T20:26:42.435Z,78.60
2017-07-02T20:29:09.318Z,78.60
2017-07-02T20:31:36.262Z,78.60
2017-07-02T20:34:03.380Z,78.50
2017-07-02T20:36:30.262Z,78.40
2017-07-02T20:38:57.413Z,78.50
2017-07-02T20:41:24.313Z,78.30
2017-07-02T20:43:51.279Z,78.20
2017-07-02T20:46:18.296Z,78.40
2017-07-02T20:48:45.189Z,78.60
2017-07-02T20:51:12.130Z,78.40
2017-07-02T20:53:39.143Z,78.20
2017-07-02T20:56:06.181Z,78.10
2017-07-02T20:58:33.123Z,78.00
2017-07-02T21:01:00.449Z,78.10
2017-07-02T21:03:28.121Z,78.10
2017-07-02T21:05:55.013Z,78.10
2017-07-02T21:08:22.011Z,78.10
2017-07-02T21:10:49.831Z,78.10
2017-07-02T21:13:16.765Z,78.10
2017-07-02T21:15:43.785Z,78.10
2017-07-02T21:18:11.093Z,78.00
2017-07-02T21:20:38.005Z,78.00
2017-07-02T21:23:05.014Z,78.30
2017-07-02T21:25:32.002Z,78.70
2017-07-02T21:27:58.903Z,79.00
2017-07-02T21:30:25.878Z,79.10
2017-07-02T21:32:53.231Z,79.50
2017-07-02T21:35:20.525Z,79.40
2017-07-02T21:37:47.534Z,79.50
2017-07-02T21:40:14.906Z,79.50
2017-07-02T21:42:41.796Z,79.50
2017-07-02T21:45:08.773Z,79.30
2017-07-02T21:47:35.658Z,79.00
2017-07-02T21:50:02.561Z,78.80
2017-07-02T21:52:29.485Z,78.50
2017-07-02T21:54:56.465Z,78.40
2017-07-02T21:57:23.817Z,78.30
2017-07-02T21:59:51.142Z,78.20
2017-07-02T22:02:18.034Z,78.20
2017-07-02T22:04:45.390Z,78.30
2017-07-02T22:07:12.337Z,78.30
2017-07-02T22:09:39.717Z,78.90
2017-07-02T22:12:06.605Z,78.90
2017-07-02T22:14:33.690Z,79.80
2017-07-02T22:17:00.974Z,80.50
2017-07-02T22:19:27.867Z,80.50
2017-07-02T22:21:54.809Z,80.60
2017-07-02T22:24:21.693Z,80.40
2017-07-02T22:26:48.605Z,80.40
2017-07-02T22:29:15.551Z,80.40
2017-07-02T22:31:42.499Z,80.00
2017-07-02T22:34:09.445Z,79.70
2017-07-02T22:36:36.367Z,79.40
2017-07-02T22:39:03.250Z,79.50
2017-07-02T22:41:30.587Z,79.50
2017-07-02T22:43:57.542Z,79.50
2017-07-02T22:46:24.889Z,79.90
2017-07-02T22:48:51.835Z,79.90
2017-07-02T22:51:18.766Z,80.50
2017-07-02T22:53:45.728Z,80.80
2017-07-02T22:56:12.633Z,81.20
2017-07-02T22:58:39.622Z,81.60
2017-07-02T23:01:06.521Z,81.60
2017-07-02T23:03:33.405Z,81.60
2017-07-02T23:06:00.369Z,81.80
2017-07-02T23:08:27.650Z,82.40
2017-07-02T23:10:54.546Z,82.40
2017-07-02T23:13:21.494Z,82.80
2017-07-02T23:15:48.452Z,82.90
2017-07-02T23:18:15.356Z,83.00
2017-07-02T23:20:42.686Z,83.20
2017-07-02T23:23:09.652Z,83.20
2017-07-02T23:25:36.933Z,83.20
2017-07-02T23:28:03.869Z,83.20
2017-07-02T23:30:31.160Z,83.10
2017-07-02T23:32:58.050Z,83.10
2017-07-02T23:35:25.410Z,82.90
2017-07-02T23:37:52.762Z,82.50
2017-07-02T23:40:19.651Z,82.50
2017-07-02T23:42:46.579Z,82.50
2017-07-02T23:45:13.474Z,82.60
2017-07-02T23:47:40.359Z,82.50
2017-07-02T23:50:07.698Z,82.80
2017-07-02T23:52:35.045Z,82.70
2017-07-02T23:55:01.931Z,82.70
2017-07-02T23:57:28.938Z,82.50
2017-07-02T23:59:55.831Z,82.30
